Time;durP1;ratioP1;P1;durP2;ratioP2;P2;SDS_P1;SDS_P2;PMS_P1;PMS_P2;Temp;Humidity;BMP_temperature;BMP_pressure;BME280_temperature;BME280_humidity;BME280_pressure;Samples;Min_cycle;Max_cycle;Signal;HPM_P1;HPM_P2
2023/01/20 00:00:48;;;;;;;10.32;5.80;;;;;;;;;;8252687;28;20049;-75
2023/01/20 00:04:49;;;;;;;9.40;5.65;;;;;;;;;;8256018;28;20073;-74
2023/01/20 00:08:52;;;;;;;8.73;5.68;;;;;;;;;;8257966;28;20663;-74
2023/01/20 00:12:53;;;;;;;9.43;5.50;;;;;;;;;;8256374;28;20977;-73
2023/01/20 00:16:56;;;;;;;7.53;4.80;;;;;;;;;;8236299;28;20541;-73
2023/01/20 00:21:00;;;;;;;11.10;5.70;;;;;;;;;;8242161;28;20030;-73
2023/01/20 00:25:00;;;;;;;8.50;4.45;;;;;;;;;;8236377;28;20145;-73
2023/01/20 00:29:00;;;;;;;8.18;4.55;;;;;;;;;;8256638;28;20503;-73
2023/01/20 00:33:00;;;;;;;7.78;4.70;;;;;;;;;;8253564;28;20038;-74
2023/01/20 00:37:01;;;;;;;8.75;5.00;;;;;;;;;;8256206;28;20038;-73
2023/01/20 00:41:01;;;;;;;7.05;4.70;;;;;;;;;;8256314;28;20553;-73
2023/01/20 00:45:01;;;;;;;8.98;5.20;;;;;;;;;;8254761;28;20068;-73
2023/01/20 00:49:01;;;;;;;9.38;5.22;;;;;;;;;;8253058;28;20529;-73
2023/01/20 00:53:01;;;;;;;9.68;4.80;;;;;;;;;;8237945;28;20116;-73
2023/01/20 00:57:02;;;;;;;8.60;5.55;;;;;;;;;;8256019;28;20771;-73
2023/01/20 01:01:02;;;;;;;7.80;5.33;;;;;;;;;;8254830;28;20891;-73
2023/01/20 01:05:02;;;;;;;7.32;4.68;;;;;;;;;;8254271;28;20280;-75
2023/01/20 01:09:02;;;;;;;10.27;6.35;;;;;;;;;;8253568;28;20025;-73
2023/01/20 01:13:03;;;;;;;10.10;4.53;;;;;;;;;;8254012;28;20030;-74
2023/01/20 01:17:03;;;;;;;6.32;4.70;;;;;;;;;;8253365;28;20281;-74
2023/01/20 01:21:11;;;;;;;9.70;5.22;;;;;;;;;;8228586;28;20459;-73
2023/01/20 01:25:11;;;;;;;6.53;4.90;;;;;;;;;;8253050;28;20032;-73
2023/01/20 01:29:12;;;;;;;8.50;5.20;;;;;;;;;;8251672;28;20034;-73
2023/01/20 01:33:12;;;;;;;6.55;4.93;;;;;;;;;;8249937;28;20493;-74
2023/01/20 01:37:12;;;;;;;6.63;5.13;;;;;;;;;;8257639;28;20025;-73
2023/01/20 01:41:13;;;;;;;11.80;5.60;;;;;;;;;;8256305;28;20029;-74
2023/01/20 01:45:17;;;;;;;7.53;4.85;;;;;;;;;;8258728;28;20029;-74
2023/01/20 01:49:22;;;;;;;7.00;4.90;;;;;;;;;;8257627;28;20049;-74
2023/01/20 01:53:23;;;;;;;7.57;4.72;;;;;;;;;;8259689;28;20056;-73
2023/01/20 01:57:24;;;;;;;8.23;4.60;;;;;;;;;;8258280;28;20595;-74
2023/01/20 02:01:25;;;;;;;5.53;4.57;;;;;;;;;;8256916;28;20153;-74
2023/01/20 02:05:28;;;;;;;8.18;5.30;;;;;;;;;;8256954;28;20041;-74
2023/01/20 02:09:29;;;;;;;8.10;5.40;;;;;;;;;;8258230;28;20026;-73
2023/01/20 02:13:29;;;;;;;9.55;5.45;;;;;;;;;;8260319;28;20116;-73
2023/01/20 02:17:29;;;;;;;6.65;4.80;;;;;;;;;;8258660;28;20037;-73
2023/01/20 02:21:32;;;;;;;7.43;4.70;;;;;;;;;;8259843;28;20084;-73
2023/01/20 02:25:52;;;;;;;6.47;4.28;;;;;;;;;;8259185;28;21067;-73
2023/01/20 02:30:07;;;;;;;6.05;4.00;;;;;;;;;;8256538;28;20128;-74
2023/01/20 02:34:11;;;;;;;7.38;3.83;;;;;;;;;;8259277;28;20053;-74
2023/01/20 02:38:19;;;;;;;8.05;4.75;;;;;;;;;;8256871;28;20504;-73
2023/01/20 02:42:31;;;;;;;8.50;6.07;;;;;;;;;;8258706;28;20146;-74
2023/01/20 02:46:35;;;;;;;11.35;5.78;;;;;;;;;;8230113;28;20100;-74
2023/01/20 02:50:47;;;;;;;8.05;4.82;;;;;;;;;;8236514;28;20069;-73
2023/01/20 02:54:48;;;;;;;8.73;4.57;;;;;;;;;;8253374;28;20119;-74
2023/01/20 02:58:49;;;;;;;9.27;4.75;;;;;;;;;;8236182;28;20034;-74
2023/01/20 03:02:52;;;;;;;6.85;4.57;;;;;;;;;;8256246;28;20038;-73
2023/01/20 03:06:53;;;;;;;10.00;4.60;;;;;;;;;;8257734;28;20387;-74
2023/01/20 03:10:55;;;;;;;6.57;4.78;;;;;;;;;;8257156;28;20822;-73
2023/01/20 03:14:55;;;;;;;9.38;6.90;;;;;;;;;;8258281;28;20034;-74
2023/01/20 03:18:55;;;;;;;8.90;5.20;;;;;;;;;;8257857;28;20164;-73
2023/01/20 03:22:55;;;;;;;10.68;5.45;;;;;;;;;;8257856;28;20128;-73
2023/01/20 03:26:56;;;;;;;7.53;5.68;;;;;;;;;;8258534;28;20025;-74
2023/01/20 03:30:57;;;;;;;6.45;4.95;;;;;;;;;;8256607;28;20034;-74
2023/01/20 03:34:58;;;;;;;8.30;5.13;;;;;;;;;;8256315;28;20035;-74
2023/01/20 03:38:58;;;;;;;10.75;4.95;;;;;;;;;;8256485;28;20512;-74
2023/01/20 03:43:21;;;;;;;9.85;5.55;;;;;;;;;;8256149;28;20026;-73
2023/01/20 03:47:34;;;;;;;11.27;5.35;;;;;;;;;;8247774;28;20045;-74
2023/01/20 03:51:40;;;;;;;7.85;5.15;;;;;;;;;;8257825;28;20065;-74
2023/01/20 03:55:47;;;;;;;6.97;4.90;;;;;;;;;;8252954;28;20022;-73
2023/01/20 03:59:49;;;;;;;8.23;4.97;;;;;;;;;;8253859;28;21311;-73
2023/01/20 04:03:51;;;;;;;11.38;4.78;;;;;;;;;;8254723;28;20034;-73
2023/01/20 04:07:54;;;;;;;6.60;4.55;;;;;;;;;;8256031;28;20025;-74
2023/01/20 04:11:55;;;;;;;8.23;5.15;;;;;;;;;;8255785;28;20120;-73
2023/01/20 04:15:55;;;;;;;8.68;5.03;;;;;;;;;;8253104;28;20773;-73
2023/01/20 04:19:56;;;;;;;9.00;4.88;;;;;;;;;;8256904;28;20293;-74
2023/01/20 04:24:02;;;;;;;7.68;4.25;;;;;;;;;;8237919;28;20018;-74
2023/01/20 04:28:02;;;;;;;9.60;4.75;;;;;;;;;;8253894;28;20030;-74
2023/01/20 04:32:02;;;;;;;5.07;4.05;;;;;;;;;;8253748;28;20096;-73
2023/01/20 04:36:03;;;;;;;7.03;4.47;;;;;;;;;;8254731;28;20030;-74
2023/01/20 04:40:03;;;;;;;5.75;4.40;;;;;;;;;;8256402;28;20033;-74
2023/01/20 04:44:04;;;;;;;7.03;4.50;;;;;;;;;;8255867;28;20026;-74
2023/01/20 04:48:05;;;;;;;8.90;4.45;;;;;;;;;;8241046;28;20045;-74
2023/01/20 04:52:05;;;;;;;5.13;4.20;;;;;;;;;;8255322;28;20025;-73
2023/01/20 04:56:14;;;;;;;7.57;4.57;;;;;;;;;;8254958;28;20071;-74
2023/01/20 05:00:18;;;;;;;12.68;5.22;;;;;;;;;;8253360;28;20136;-74
2023/01/20 05:04:19;;;;;;;6.68;4.22;;;;;;;;;;8256507;28;20023;-74
2023/01/20 05:08:19;;;;;;;10.30;4.17;;;;;;;;;;8256821;28;20124;-74
2023/01/20 05:12:19;;;;;;;5.75;4.25;;;;;;;;;;8241074;28;20276;-74
2023/01/20 05:16:23;;;;;;;6.15;4.43;;;;;;;;;;8262172;28;20700;-74
2023/01/20 05:20:24;;;;;;;10.45;3.95;;;;;;;;;;8261757;28;20061;-74
2023/01/20 05:24:24;;;;;;;7.23;4.17;;;;;;;;;;8241825;28;20026;-74
2023/01/20 05:28:24;;;;;;;8.15;4.68;;;;;;;;;;8259453;28;20275;-73
2023/01/20 05:32:24;;;;;;;5.10;3.95;;;;;;;;;;8259185;28;20034;-74
2023/01/20 05:36:27;;;;;;;8.45;4.55;;;;;;;;;;8260064;28;20021;-74
2023/01/20 05:40:27;;;;;;;6.13;3.90;;;;;;;;;;8239672;28;20136;-74
2023/01/20 05:44:27;;;;;;;5.70;4.03;;;;;;;;;;8253308;28;20855;-74
2023/01/20 05:48:27;;;;;;;6.55;4.53;;;;;;;;;;8256395;28;20053;-74
2023/01/20 05:52:27;;;;;;;6.65;4.10;;;;;;;;;;8259212;28;20116;-74
2023/01/20 05:56:28;;;;;;;8.95;4.22;;;;;;;;;;8260907;28;20037;-73
2023/01/20 06:00:28;;;;;;;7.35;4.20;;;;;;;;;;8259296;28;21006;-73
2023/01/20 06:04:28;;;;;;;7.25;4.25;;;;;;;;;;8257890;28;20593;-73
2023/01/20 06:08:28;;;;;;;6.32;4.55;;;;;;;;;;8246289;28;20056;-73
2023/01/20 06:12:28;;;;;;;7.82;4.00;;;;;;;;;;8259346;28;20021;-73
2023/01/20 06:16:28;;;;;;;6.10;4.60;;;;;;;;;;8244943;28;20038;-72
2023/01/20 06:20:29;;;;;;;7.82;4.13;;;;;;;;;;8256855;28;20018;-73
2023/01/20 06:24:29;;;;;;;7.25;4.07;;;;;;;;;;8257463;28;20029;-74
2023/01/20 06:28:29;;;;;;;15.85;8.05;;;;;;;;;;8257129;28;20285;-73
2023/01/20 06:32:29;;;;;;;10.13;5.85;;;;;;;;;;8259025;28;20103;-74
2023/01/20 06:36:29;;;;;;;10.05;5.18;;;;;;;;;;8260128;28;20057;-73
2023/01/20 06:40:30;;;;;;;8.85;4.82;;;;;;;;;;8258706;28;20038;-73
2023/01/20 06:44:30;;;;;;;5.97;4.38;;;;;;;;;;8258065;28;20757;-73
2023/01/20 06:48:30;;;;;;;9.85;4.35;;;;;;;;;;8257890;28;20281;-73
2023/01/20 06:52:30;;;;;;;4.03;3.38;;;;;;;;;;8261282;28;20061;-73
2023/01/20 06:56:31;;;;;;;6.05;3.65;;;;;;;;;;8257828;28;20482;-73
2023/01/20 07:00:46;;;;;;;6.55;4.35;;;;;;;;;;8230994;28;20583;-74
2023/01/20 07:04:46;;;;;;;6.57;3.95;;;;;;;;;;8259136;28;20046;-73
2023/01/20 07:08:46;;;;;;;7.22;3.80;;;;;;;;;;8238824;28;20624;-73
2023/01/20 07:12:46;;;;;;;7.95;4.20;;;;;;;;;;8235352;28;20126;-73
2023/01/20 07:16:47;;;;;;;4.10;3.40;;;;;;;;;;8258535;28;20486;-73
2023/01/20 07:20:51;;;;;;;7.72;4.70;;;;;;;;;;8259668;28;20141;-73
2023/01/20 07:24:51;;;;;;;;;;;;;;;;;;8260004;28;20319;-73
2023/01/20 07:28:51;;;;;;;5.97;3.67;;;;;;;;;;8259568;28;20774;-73
2023/01/20 07:32:52;;;;;;;6.45;3.97;;;;;;;;;;8257442;28;20034;-73
2023/01/20 07:36:52;;;;;;;6.20;3.80;;;;;;;;;;8242256;28;20025;-73
2023/01/20 07:40:55;;;;;;;5.15;4.15;;;;;;;;;;8244495;28;20527;-73
2023/01/20 07:44:55;;;;;;;8.10;5.20;;;;;;;;;;8260214;28;20053;-73
2023/01/20 07:48:56;;;;;;;12.07;6.13;;;;;;;;;;8258499;28;20490;-72
2023/01/20 07:52:56;;;;;;;8.98;5.95;;;;;;;;;;8260026;28;20046;-73
2023/01/20 07:56:56;;;;;;;11.27;6.63;;;;;;;;;;8259400;28;20522;-72
2023/01/20 08:00:56;;;;;;;11.10;7.22;;;;;;;;;;8257286;28;20104;-73
2023/01/20 08:04:56;;;;;;;9.40;4.28;;;;;;;;;;8259704;28;20149;-72
2023/01/20 08:09:00;;;;;;;7.13;3.72;;;;;;;;;;8259208;28;20037;-73
2023/01/20 08:13:00;;;;;;;8.13;3.60;;;;;;;;;;8258427;28;20177;-73
2023/01/20 08:17:01;;;;;;;7.20;3.97;;;;;;;;;;8256961;28;20756;-73
2023/01/20 08:21:05;;;;;;;7.40;3.90;;;;;;;;;;8257646;28;20030;-73
2023/01/20 08:25:05;;;;;;;10.20;4.53;;;;;;;;;;8240020;28;20132;-72
2023/01/20 08:29:07;;;;;;;5.50;3.80;;;;;;;;;;8237654;28;20026;-73
2023/01/20 08:33:07;;;;;;;10.25;4.13;;;;;;;;;;8257130;28;20026;-72
2023/01/20 08:37:07;;;;;;;5.75;3.78;;;;;;;;;;8259082;28;20777;-72
2023/01/20 08:41:08;;;;;;;11.15;4.82;;;;;;;;;;8257371;28;20033;-73
2023/01/20 08:45:08;;;;;;;7.65;3.67;;;;;;;;;;8242428;28;20055;-73
2023/01/20 08:49:11;;;;;;;6.50;3.42;;;;;;;;;;8257665;28;20018;-73
2023/01/20 08:53:11;;;;;;;3.63;2.83;;;;;;;;;;8257551;28;20033;-73
2023/01/20 08:57:11;;;;;;;7.15;3.05;;;;;;;;;;8258113;28;20021;-72
2023/01/20 09:01:13;;;;;;;4.30;3.27;;;;;;;;;;8255942;28;20048;-72
2023/01/20 09:05:13;;;;;;;2.97;2.45;;;;;;;;;;8256499;28;20273;-72
2023/01/20 09:09:15;;;;;;;4.47;3.25;;;;;;;;;;8257975;28;20026;-72
2023/01/20 09:13:15;;;;;;;14.60;6.35;;;;;;;;;;8257943;28;20030;-72
2023/01/20 09:17:15;;;;;;;6.20;3.50;;;;;;;;;;8240041;28;20045;-72
2023/01/20 09:21:15;;;;;;;5.97;3.58;;;;;;;;;;8257455;28;20112;-72
2023/01/20 09:25:15;;;;;;;5.65;4.03;;;;;;;;;;8238923;28;20029;-74
2023/01/20 09:29:17;;;;;;;11.43;4.15;;;;;;;;;;8258534;28;20022;-73
2023/01/20 09:33:17;;;;;;;6.90;3.60;;;;;;;;;;8254614;28;20069;-73
2023/01/20 09:46:02;;;;;;;6.10;4.35;;;;;;;;;;8256825;28;20132;-72
2023/01/20 09:54:37;;;;;;;7.55;5.15;;;;;;;;;;8259523;28;20048;-73
2023/01/20 09:58:43;;;;;;;11.98;4.93;;;;;;;;;;8261782;28;20041;-72
2023/01/20 10:02:47;;;;;;;9.20;5.07;;;;;;;;;;8261608;28;20093;-73
2023/01/20 10:06:56;;;;;;;10.60;4.95;;;;;;;;;;8245490;28;20067;-73
2023/01/20 10:11:08;;;;;;;8.52;4.43;;;;;;;;;;8262501;28;20487;-72
2023/01/20 10:15:15;;;;;;;8.30;4.47;;;;;;;;;;8260254;28;20030;-73
2023/01/20 10:19:20;;;;;;;6.00;4.30;;;;;;;;;;8261854;28;20128;-72
2023/01/20 10:23:39;;;;;;;7.00;4.55;;;;;;;;;;8244960;28;20978;-72
2023/01/20 10:27:43;;;;;;;11.30;4.95;;;;;;;;;;8261236;28;20021;-72
2023/01/20 10:31:48;;;;;;;7.13;4.10;;;;;;;;;;8242156;28;20095;-73
2023/01/20 10:35:50;;;;;;;8.77;4.53;;;;;;;;;;8262691;28;20423;-73
2023/01/20 10:40:14;;;;;;;7.13;4.30;;;;;;;;;;8260846;28;20092;-73
2023/01/20 10:44:14;;;;;;;8.95;4.28;;;;;;;;;;8262907;28;20034;-72
2023/01/20 10:48:33;;;;;;;7.05;4.35;;;;;;;;;;8261519;28;20077;-72
2023/01/20 10:52:45;;;;;;;10.30;5.07;;;;;;;;;;8259108;28;20038;-72
2023/01/20 10:56:52;;;;;;;6.93;3.90;;;;;;;;;;8261026;28;20025;-72
2023/01/20 11:00:53;;;;;;;8.90;4.28;;;;;;;;;;8261123;28;21323;-73
2023/01/20 11:04:58;;;;;;;5.63;3.55;;;;;;;;;;8259186;28;20430;-74
2023/01/20 11:09:10;;;;;;;7.07;3.70;;;;;;;;;;8260654;28;20026;-72
2023/01/20 11:13:10;;;;;;;5.65;3.95;;;;;;;;;;8260150;28;20037;-73
2023/01/20 11:17:16;;;;;;;6.10;3.75;;;;;;;;;;8241155;28;20025;-73
2023/01/20 11:21:21;;;;;;;6.57;4.03;;;;;;;;;;8261488;28;20884;-72
2023/01/20 11:25:23;;;;;;;5.72;3.90;;;;;;;;;;8259559;28;20025;-72
2023/01/20 11:29:26;;;;;;;5.32;3.75;;;;;;;;;;8260717;28;20025;-73
2023/01/20 11:33:27;;;;;;;6.22;3.80;;;;;;;;;;8259317;28;20037;-72
2023/01/20 11:37:34;;;;;;;7.30;4.20;;;;;;;;;;8259902;28;20503;-73
2023/01/20 11:41:35;;;;;;;6.25;4.18;;;;;;;;;;8235059;28;20053;-73
2023/01/20 11:45:35;;;;;;;6.72;3.88;;;;;;;;;;8257626;28;20112;-73
2023/01/20 11:49:36;;;;;;;8.45;4.00;;;;;;;;;;8259531;28;20034;-73
2023/01/20 11:53:36;;;;;;;7.90;3.83;;;;;;;;;;8259328;28;20069;-72
2023/01/20 11:57:43;;;;;;;7.22;3.75;;;;;;;;;;8258261;28;20033;-73
2023/01/20 12:01:50;;;;;;;5.53;3.92;;;;;;;;;;8253658;28;20037;-72
2023/01/20 12:05:53;;;;;;;5.10;3.60;;;;;;;;;;8259280;28;20030;-73
2023/01/20 12:09:57;;;;;;;6.82;3.70;;;;;;;;;;8258212;28;20032;-72
2023/01/20 12:14:19;;;;;;;6.88;4.40;;;;;;;;;;8259082;28;20061;-73
2023/01/20 12:18:41;;;;;;;9.38;4.20;;;;;;;;;;8254881;28;20113;-73
2023/01/20 12:23:00;;;;;;;7.55;4.28;;;;;;;;;;8250735;28;20029;-73
2023/01/20 12:27:01;;;;;;;9.68;5.07;;;;;;;;;;8256133;28;20105;-73
2023/01/20 12:31:02;;;;;;;7.57;3.40;;;;;;;;;;8255328;28;20404;-73
2023/01/20 12:35:03;;;;;;;4.85;3.35;;;;;;;;;;8257080;28;20026;-73
2023/01/20 12:39:03;;;;;;;5.90;2.75;;;;;;;;;;8256707;28;20879;-73
2023/01/20 12:43:06;;;;;;;4.70;3.38;;;;;;;;;;8257953;28;20145;-73
2023/01/20 12:47:18;;;;;;;6.45;3.38;;;;;;;;;;8235432;28;20076;-73
2023/01/20 12:51:19;;;;;;;5.35;3.70;;;;;;;;;;8255662;28;20022;-73
2023/01/20 12:55:25;;;;;;;7.40;3.22;;;;;;;;;;8259641;28;20018;-73
2023/01/20 12:59:25;;;;;;;5.28;3.10;;;;;;;;;;8258283;28;20022;-73
2023/01/20 13:03:31;;;;;;;3.75;2.90;;;;;;;;;;8258927;28;20038;-73
2023/01/20 13:07:46;;;;;;;5.68;3.13;;;;;;;;;;8237774;28;20022;-74
2023/01/20 13:12:06;;;;;;;5.82;3.42;;;;;;;;;;8253520;28;20029;-73
2023/01/20 13:16:30;;;;;;;5.43;3.05;;;;;;;;;;8255590;28;20064;-73
2023/01/20 13:20:30;;;;;;;5.50;3.00;;;;;;;;;;8248905;28;20037;-73
2023/01/20 13:24:31;;;;;;;2.95;2.40;;;;;;;;;;8255808;28;20044;-73
2023/01/20 13:28:31;;;;;;;5.65;2.70;;;;;;;;;;8238997;28;20057;-73
2023/01/20 13:32:33;;;;;;;4.10;2.72;;;;;;;;;;8261952;28;20034;-73
2023/01/20 13:36:33;;;;;;;4.65;2.70;;;;;;;;;;8251880;28;20061;-73
2023/01/20 13:40:45;;;;;;;4.57;2.70;;;;;;;;;;8262796;28;20784;-73
2023/01/20 13:45:05;;;;;;;6.93;3.42;;;;;;;;;;8258865;28;20014;-73
2023/01/20 13:49:26;;;;;;;5.35;3.75;;;;;;;;;;8244731;28;20042;-73
2023/01/20 13:53:27;;;;;;;20.77;8.80;;;;;;;;;;8263212;28;20064;-74
2023/01/20 13:57:34;;;;;;;14.02;6.57;;;;;;;;;;8263515;28;20113;-74
2023/01/20 14:01:36;;;;;;;9.60;5.45;;;;;;;;;;8247517;28;20165;-73
2023/01/20 14:05:36;;;;;;;14.85;5.65;;;;;;;;;;8243674;28;20032;-73
2023/01/20 14:09:38;;;;;;;13.50;5.80;;;;;;;;;;8261438;28;20025;-73
2023/01/20 14:13:39;;;;;;;16.13;6.22;;;;;;;;;;8261004;28;20021;-73
2023/01/20 14:17:39;;;;;;;23.30;8.10;;;;;;;;;;8261492;28;20803;-71
2023/01/20 14:21:40;;;;;;;40.58;12.68;;;;;;;;;;8244551;28;20021;-72
2023/01/20 14:25:40;;;;;;;12.85;4.47;;;;;;;;;;8257293;28;20056;-71
2023/01/20 14:29:40;;;;;;;17.05;6.55;;;;;;;;;;8260228;28;20996;-71
2023/01/20 14:33:59;;;;;;;7.82;4.05;;;;;;;;;;8256852;28;20135;-71
2023/01/20 14:37:59;;;;;;;6.43;3.90;;;;;;;;;;8260136;28;20623;-70
2023/01/20 14:42:00;;;;;;;9.43;3.53;;;;;;;;;;8257985;28;20578;-71
2023/01/20 14:46:01;;;;;;;6.70;3.28;;;;;;;;;;8259785;28;20041;-70
2023/01/20 14:50:01;;;;;;;7.63;3.65;;;;;;;;;;8240165;28;20068;-71
2023/01/20 14:54:20;;;;;;;8.68;3.60;;;;;;;;;;8260318;28;20033;-71
2023/01/20 14:58:20;;;;;;;4.63;3.45;;;;;;;;;;8262633;28;20033;-71
2023/01/20 15:02:28;;;;;;;7.38;4.18;;;;;;;;;;8259487;28;20396;-71
2023/01/20 15:06:28;;;;;;;5.85;3.88;;;;;;;;;;8259124;28;20026;-71
2023/01/20 15:10:28;;;;;;;5.55;3.75;;;;;;;;;;8241365;28;20033;-71
2023/01/20 15:14:32;;;;;;;6.20;3.42;;;;;;;;;;8255380;28;20462;-71
2023/01/20 15:18:32;;;;;;;6.03;3.70;;;;;;;;;;8254979;28;20033;-72
2023/01/20 15:22:32;;;;;;;6.70;3.42;;;;;;;;;;8239481;28;20884;-70
2023/01/20 15:26:35;;;;;;;8.10;3.42;;;;;;;;;;8257769;28;20925;-71
2023/01/20 15:30:35;;;;;;;6.80;3.22;;;;;;;;;;8259082;28;20026;-71
2023/01/20 15:34:36;;;;;;;7.72;3.53;;;;;;;;;;8261953;28;20380;-71
2023/01/20 15:38:36;;;;;;;5.78;3.38;;;;;;;;;;8259584;28;20275;-71
2023/01/20 15:42:37;;;;;;;7.40;3.70;;;;;;;;;;8281619;28;20597;-75
2023/01/20 15:46:39;;;;;;;7.25;3.50;;;;;;;;;;8266039;28;20564;-72
2023/01/20 15:50:40;;;;;;;7.38;4.90;;;;;;;;;;8265164;28;20105;-72
2023/01/20 15:54:40;;;;;;;5.80;3.47;;;;;;;;;;8259924;28;20123;-72
2023/01/20 15:58:41;;;;;;;3.25;2.50;;;;;;;;;;8254977;28;20038;-72
2023/01/20 16:02:41;;;;;;;2.47;2.13;;;;;;;;;;8254749;28;20818;-71
2023/01/20 16:06:41;;;;;;;4.88;1.80;;;;;;;;;;8246215;28;20053;-71
2023/01/20 16:10:41;;;;;;;3.55;1.90;;;;;;;;;;8256065;28;20061;-70
2023/01/20 16:14:42;;;;;;;1.65;1.55;;;;;;;;;;8256536;28;20105;-70
2023/01/20 16:18:43;;;;;;;1.23;1.15;;;;;;;;;;8257859;28;20034;-71
2023/01/20 16:22:43;;;;;;;2.30;2.10;;;;;;;;;;8239552;28;20648;-71
2023/01/20 16:26:44;;;;;;;1.60;1.42;;;;;;;;;;8259714;28;20507;-72
2023/01/20 16:30:44;;;;;;;1.63;1.30;;;;;;;;;;8257952;28;20801;-72
2023/01/20 16:34:45;;;;;;;1.13;1.08;;;;;;;;;;8263251;28;20018;-72
2023/01/20 16:38:46;;;;;;;2.25;2.05;;;;;;;;;;8265899;28;20386;-73
2023/01/20 16:42:46;;;;;;;2.15;2.00;;;;;;;;;;8264219;28;20030;-72
2023/01/20 16:46:47;;;;;;;1.20;1.10;;;;;;;;;;8261268;28;20030;-73
2023/01/20 16:50:47;;;;;;;2.63;2.38;;;;;;;;;;8263863;28;20025;-73
2023/01/20 16:54:48;;;;;;;2.92;2.55;;;;;;;;;;8264910;28;20124;-73
2023/01/20 16:58:50;;;;;;;4.05;1.98;;;;;;;;;;8248706;28;20953;-72
2023/01/20 17:02:51;;;;;;;3.60;1.70;;;;;;;;;;8265876;28;20042;-74
2023/01/20 17:06:51;;;;;;;3.90;1.65;;;;;;;;;;8275094;28;20937;-73
2023/01/20 17:10:51;;;;;;;2.20;1.83;;;;;;;;;;8275873;28;20759;-74
2023/01/20 17:14:52;;;;;;;2.83;1.70;;;;;;;;;;8272957;28;20052;-73
2023/01/20 17:18:53;;;;;;;4.13;1.85;;;;;;;;;;8254767;28;20088;-74
2023/01/20 17:22:56;;;;;;;2.60;2.13;;;;;;;;;;8274763;28;20034;-74
2023/01/20 17:26:56;;;;;;;4.20;2.58;;;;;;;;;;8277137;28;20613;-73
2023/01/20 17:31:00;;;;;;;4.47;3.55;;;;;;;;;;8274851;28;20049;-73
2023/01/20 17:35:00;;;;;;;5.72;3.80;;;;;;;;;;8276626;28;20021;-73
2023/01/20 17:39:01;;;;;;;7.82;5.35;;;;;;;;;;8275965;28;20048;-73
2023/01/20 17:43:03;;;;;;;11.23;6.75;;;;;;;;;;8276004;28;20176;-74
2023/01/20 17:47:03;;;;;;;6.22;4.80;;;;;;;;;;8257921;28;20034;-73
2023/01/20 17:51:10;;;;;;;6.32;4.78;;;;;;;;;;8278132;28;20525;-74
2023/01/20 17:55:11;;;;;;;7.30;4.18;;;;;;;;;;8261428;28;20072;-73
2023/01/20 17:59:11;;;;;;;6.13;3.88;;;;;;;;;;8277107;28;20026;-73
2023/01/20 18:03:11;;;;;;;4.30;3.13;;;;;;;;;;8282132;28;20042;-75
2023/01/20 18:07:11;;;;;;;7.82;3.90;;;;;;;;;;8279340;28;20065;-73
2023/01/20 18:11:20;;;;;;;24.08;9.38;;;;;;;;;;8280119;28;20041;-73
2023/01/20 18:15:20;;;;;;;11.27;5.40;;;;;;;;;;8276668;28;20816;-74
2023/01/20 18:19:20;;;;;;;9.95;5.30;;;;;;;;;;8271176;28;20026;-74
2023/01/20 18:23:21;;;;;;;11.23;7.38;;;;;;;;;;8274330;28;20030;-73
2023/01/20 18:27:21;;;;;;;8.20;5.97;;;;;;;;;;8273872;28;20026;-73
2023/01/20 18:31:22;;;;;;;20.75;9.32;;;;;;;;;;8271625;28;20663;-74
2023/01/20 18:35:22;;;;;;;6.30;3.60;;;;;;;;;;8263811;28;20651;-74
2023/01/20 18:39:23;;;;;;;9.55;6.50;;;;;;;;;;8271193;28;20501;-74
2023/01/20 18:43:24;;;;;;;14.52;6.25;;;;;;;;;;8273396;28;20089;-75
2023/01/20 18:47:24;;;;;;;8.48;6.05;;;;;;;;;;8277153;28;20092;-74
2023/01/20 18:51:25;;;;;;;7.32;5.53;;;;;;;;;;8269663;28;20038;-73
2023/01/20 18:55:26;;;;;;;13.77;9.07;;;;;;;;;;8266304;28;20084;-74
2023/01/20 18:59:26;;;;;;;9.20;6.90;;;;;;;;;;8271626;28;20487;-74
2023/01/20 19:03:26;;;;;;;8.38;6.82;;;;;;;;;;8271522;28;20045;-74
2023/01/20 19:07:26;;;;;;;15.80;10.15;;;;;;;;;;8272720;28;20482;-74
2023/01/20 19:11:28;;;;;;;13.98;9.02;;;;;;;;;;8269121;28;20109;-74
2023/01/20 19:15:28;;;;;;;25.42;14.85;;;;;;;;;;8267496;28;20561;-74
2023/01/20 19:19:28;;;;;;;14.48;10.07;;;;;;;;;;8246845;28;20025;-74
2023/01/20 19:23:29;;;;;;;11.32;7.40;;;;;;;;;;8268920;28;20084;-74
2023/01/20 19:27:29;;;;;;;6.45;5.28;;;;;;;;;;8266444;28;20079;-75
2023/01/20 19:31:31;;;;;;;19.20;5.70;;;;;;;;;;8264945;28;20491;-69
2023/01/20 19:35:32;;;;;;;13.75;6.40;;;;;;;;;;8262062;28;20030;-74
2023/01/20 19:39:32;;;;;;;9.20;6.40;;;;;;;;;;8256432;28;20032;-74
2023/01/20 19:43:33;;;;;;;7.72;6.13;;;;;;;;;;8255354;28;20033;-75
2023/01/20 19:47:34;;;;;;;7.50;5.88;;;;;;;;;;8251229;28;20036;-76
2023/01/20 19:51:35;;;;;;;6.70;5.55;;;;;;;;;;8232119;28;20041;-75
2023/01/20 19:55:35;;;;;;;11.27;5.45;;;;;;;;;;8252398;28;20815;-75
2023/01/20 19:59:39;;;;;;;73.97;8.98;;;;;;;;;;8252819;28;20025;-76
2023/01/20 20:03:39;;;;;;;61.08;8.07;;;;;;;;;;8224027;28;20053;-76
2023/01/20 20:07:39;;;;;;;24.58;6.97;;;;;;;;;;8253299;28;20545;-76
2023/01/20 20:11:40;;;;;;;142.52;9.93;;;;;;;;;;8253923;28;20101;-75
2023/01/20 20:15:40;;;;;;;291.45;14.40;;;;;;;;;;8252567;28;20036;-75
2023/01/20 20:19:40;;;;;;;16.80;8.43;;;;;;;;;;8252844;28;20021;-75
2023/01/20 20:23:40;;;;;;;16.75;6.60;;;;;;;;;;8233888;28;20022;-74
2023/01/20 20:27:40;;;;;;;6.40;5.65;;;;;;;;;;8251396;28;20022;-75
2023/01/20 20:31:41;;;;;;;13.75;9.13;;;;;;;;;;8250645;28;20026;-76
2023/01/20 20:35:41;;;;;;;14.27;10.20;;;;;;;;;;8251902;28;20028;-75
2023/01/20 20:39:41;;;;;;;9.10;6.88;;;;;;;;;;8252355;28;20920;-75
2023/01/20 20:43:41;;;;;;;7.80;6.70;;;;;;;;;;8254065;28;20018;-75
2023/01/20 20:47:41;;;;;;;6.68;5.95;;;;;;;;;;8232875;28;20064;-74
2023/01/20 20:51:42;;;;;;;6.18;4.95;;;;;;;;;;8232252;28;20760;-74
2023/01/20 20:55:42;;;;;;;6.07;4.88;;;;;;;;;;8249940;28;20037;-74
2023/01/20 20:59:43;;;;;;;5.55;4.95;;;;;;;;;;8249273;28;20140;-74
2023/01/20 21:03:44;;;;;;;8.37;5.73;;;;;;;;;;8219073;28;20034;-74
2023/01/20 21:07:45;;;;;;;7.00;5.88;;;;;;;;;;8249221;28;20339;-75
2023/01/20 21:11:45;;;;;;;8.30;7.03;;;;;;;;;;8232809;28;20082;-73
2023/01/20 21:16:15;;;;;;;13.40;6.82;;;;;;;;;;8221486;28;20406;-74
2023/01/20 21:20:15;;;;;;;9.65;6.57;;;;;;;;;;8230917;28;20037;-74
2023/01/20 21:24:16;;;;;;;7.20;5.97;;;;;;;;;;8249657;28;20025;-75
2023/01/20 21:28:16;;;;;;;8.65;7.25;;;;;;;;;;8251002;28;20265;-75
2023/01/20 21:32:16;;;;;;;10.63;8.27;;;;;;;;;;8250149;28;20045;-75
2023/01/20 21:36:17;;;;;;;16.83;11.35;;;;;;;;;;8252975;28;20498;-75
2023/01/20 21:40:17;;;;;;;37.53;14.52;;;;;;;;;;8252827;28;20074;-75
2023/01/20 21:44:31;;;;;;;361.35;15.82;;;;;;;;;;8252987;28;20891;-76
2023/01/20 21:52:50;;;;;;;418.88;17.25;;;;;;;;;;8257320;28;20043;-76
2023/01/20 21:56:50;;;;;;;832.38;30.02;;;;;;;;;;8241114;28;20030;-76
2023/01/20 22:00:54;;;;;;;471.30;18.13;;;;;;;;;;8255014;28;20073;-75
2023/01/20 22:04:54;;;;;;;66.38;8.02;;;;;;;;;;8258813;28;20033;-76
2023/01/20 22:08:57;;;;;;;372.60;14.30;;;;;;;;;;8257872;28;20358;-76
2023/01/20 22:12:57;;;;;;;463.45;16.08;;;;;;;;;;8257839;28;20087;-75
2023/01/20 22:16:57;;;;;;;346.27;13.85;;;;;;;;;;8238407;28;20034;-76
2023/01/20 22:21:01;;;;;;;410.10;16.05;;;;;;;;;;8258385;28;20065;-75
2023/01/20 22:25:01;;;;;;;413.88;15.88;;;;;;;;;;8259114;28;20513;-75
2023/01/20 22:29:01;;;;;;;257.83;12.52;;;;;;;;;;8243674;28;20145;-75
2023/01/20 22:33:02;;;;;;;227.32;12.40;;;;;;;;;;8236460;28;20585;-75
2023/01/20 22:37:02;;;;;;;275.30;12.70;;;;;;;;;;8236073;28;20141;-75
2023/01/20 22:41:03;;;;;;;250.35;12.38;;;;;;;;;;8256590;28;20288;-75
2023/01/20 22:45:03;;;;;;;146.98;9.40;;;;;;;;;;8257003;28;20049;-76
2023/01/20 22:49:03;;;;;;;186.35;10.38;;;;;;;;;;8255220;28;20029;-75
2023/01/20 22:53:03;;;;;;;73.57;8.57;;;;;;;;;;8258256;28;20567;-75
2023/01/20 22:57:04;;;;;;;98.47;8.27;;;;;;;;;;8255987;28;20025;-76
2023/01/20 23:01:09;;;;;;;38.13;6.63;;;;;;;;;;8255313;28;20042;-75
2023/01/20 23:05:10;;;;;;;341.48;13.73;;;;;;;;;;8255276;28;20026;-75
2023/01/20 23:09:11;;;;;;;406.27;18.58;;;;;;;;;;8255377;28;20692;-75
2023/01/20 23:13:12;;;;;;;102.30;7.47;;;;;;;;;;8254212;28;20034;-75
2023/01/20 23:17:13;;;;;;;156.00;9.02;;;;;;;;;;8253220;28;20045;-76
2023/01/20 23:21:13;;;;;;;221.00;10.45;;;;;;;;;;8237167;28;20658;-75
2023/01/20 23:25:13;;;;;;;111.45;7.05;;;;;;;;;;8256375;28;20326;-75
2023/01/20 23:29:13;;;;;;;289.17;12.63;;;;;;;;;;8255357;28;20096;-75
2023/01/20 23:33:14;;;;;;;225.48;10.48;;;;;;;;;;8255553;28;20033;-75
2023/01/20 23:37:14;;;;;;;184.63;9.23;;;;;;;;;;8236567;28;20030;-75
2023/01/20 23:41:15;;;;;;;221.57;10.30;;;;;;;;;;8254903;28;20153;-76
2023/01/20 23:45:15;;;;;;;373.23;14.60;;;;;;;;;;8255184;28;20026;-75
2023/01/20 23:49:15;;;;;;;442.42;16.95;;;;;;;;;;8255931;28;20033;-75
2023/01/20 23:53:16;;;;;;;758.45;27.50;;;;;;;;;;8254508;28;20124;-75
2023/01/20 23:57:16;;;;;;;291.02;13.38;;;;;;;;;;8255718;28;20030;-75
